Time;durP1;ratioP1;P1;durP2;ratioP2;P2;SDS_P1;SDS_P2;PMS_P1;PMS_P2;Temp;Humidity;BMP_temperature;BMP_pressure;BME280_temperature;BME280_humidity;BME280_pressure;Samples;Min_cycle;Max_cycle;Signal;HPM_P1;HPM_P2
2021/08/17 00:02:11;;;;;;;13.70;5.55;;;;;;;21.82;50.47;102064.91;5030239;28;20033;-72
2021/08/17 00:04:37;;;;;;;8.73;3.53;;;;;;;21.82;50.77;102051.00;5031473;28;20028;-73
2021/08/17 00:07:03;;;;;;;11.63;3.53;;;;;;;22.10;49.83;102057.31;5031477;28;20045;-72
2021/08/17 00:09:31;;;;;;;9.85;3.58;;;;;;;22.18;49.68;102057.50;5031455;28;20026;-71
2021/08/17 00:11:56;;;;;;;8.77;3.78;;;;;;;21.80;50.53;102061.69;5031232;28;20037;-72
2021/08/17 00:14:22;;;;;;;19.90;4.45;;;;;;;21.82;50.44;102056.56;5029859;28;20026;-72
2021/08/17 00:16:48;;;;;;;10.45;3.35;;;;;;;22.18;49.10;102054.72;5029997;28;20029;-72
2021/08/17 00:19:13;;;;;;;12.82;3.78;;;;;;;22.07;49.59;102058.03;5030022;28;20086;-73
2021/08/17 00:21:39;;;;;;;14.65;4.00;;;;;;;21.86;49.78;102060.25;5030071;28;20025;-72
2021/08/17 00:24:05;;;;;;;11.23;3.72;;;;;;;21.85;49.76;102051.13;5031225;28;20495;-72
2021/08/17 00:26:30;;;;;;;10.65;4.32;;;;;;;21.89;49.71;102046.44;5030946;28;20507;-72
2021/08/17 00:28:56;;;;;;;11.73;4.00;;;;;;;22.05;49.29;102053.97;5031144;28;20111;-73
2021/08/17 00:31:21;;;;;;;10.10;4.18;;;;;;;21.64;50.82;102055.31;5030946;28;20450;-74
2021/08/17 00:33:47;;;;;;;11.73;4.60;;;;;;;21.66;50.32;102062.13;5031156;28;20078;-72
2021/08/17 00:36:13;;;;;;;8.90;3.85;;;;;;;21.69;50.08;102057.81;5031070;28;20026;-72
2021/08/17 00:38:39;;;;;;;10.43;4.15;;;;;;;21.65;50.33;102056.91;5030683;28;20033;-71
2021/08/17 00:41:07;;;;;;;10.38;4.07;;;;;;;21.25;51.40;102050.25;5030905;28;20030;-72
2021/08/17 00:43:33;;;;;;;13.55;4.35;;;;;;;21.59;50.29;102046.03;5030883;28;20383;-72
2021/08/17 00:45:58;;;;;;;10.68;3.08;;;;;;;21.29;51.02;102056.75;5030739;28;20028;-72
2021/08/17 00:48:24;;;;;;;10.85;4.60;;;;;;;21.62;49.91;102040.97;5030872;28;20041;-72
2021/08/17 00:50:50;;;;;;;10.70;3.45;;;;;;;21.52;50.37;102047.81;5030608;28;20029;-72
2021/08/17 00:53:16;;;;;;;7.50;3.88;;;;;;;21.32;50.58;102047.72;5030760;28;20033;-72
2021/08/17 00:55:42;;;;;;;10.77;3.60;;;;;;;21.23;50.70;102035.88;5030750;28;20021;-72
2021/08/17 00:58:08;;;;;;;11.45;3.33;;;;;;;21.25;50.73;102050.25;5030707;28;20030;-73
2021/08/17 01:00:33;;;;;;;9.20;2.92;;;;;;;21.33;50.41;102048.50;5030568;28;20526;-72
2021/08/17 01:02:59;;;;;;;7.03;3.45;;;;;;;21.54;49.59;102042.75;5030545;28;20034;-72
2021/08/17 01:05:28;;;;;;;11.43;3.42;;;;;;;21.43;49.97;102042.44;5030531;28;20041;-72
2021/08/17 01:07:54;;;;;;;11.90;4.32;;;;;;;21.64;49.49;102044.19;5030526;28;20026;-72
2021/08/17 01:10:20;;;;;;;11.73;3.38;;;;;;;21.15;50.53;102033.25;5030445;28;20029;-72
2021/08/17 01:12:46;;;;;;;8.40;3.67;;;;;;;21.61;49.00;102037.34;5029140;28;20029;-79
2021/08/17 01:15:14;;;;;;;9.57;2.90;;;;;;;21.92;48.12;102039.34;5030415;28;20031;-72
2021/08/17 01:17:40;;;;;;;9.60;3.92;;;;;;;21.05;50.29;102037.34;5030387;28;20022;-71
2021/08/17 01:20:12;;;;;;;7.50;4.03;;;;;;;21.21;49.75;102035.44;5030335;28;20052;-73
2021/08/17 01:22:40;;;;;;;12.63;3.83;;;;;;;21.51;48.85;102027.56;5030449;28;20029;-72
2021/08/17 01:25:07;;;;;;;18.80;4.03;;;;;;;21.49;48.85;102035.44;5030533;28;20390;-72
2021/08/17 01:27:32;;;;;;;10.63;4.05;;;;;;;20.93;50.13;102029.06;5028918;28;20046;-72
2021/08/17 01:29:58;;;;;;;9.05;3.22;;;;;;;21.55;48.81;102022.91;5029983;28;20039;-73
2021/08/17 01:32:23;;;;;;;11.55;3.42;;;;;;;21.82;47.95;102023.19;5029985;28;20029;-72
2021/08/17 01:34:49;;;;;;;8.18;3.58;;;;;;;21.41;48.71;102030.06;5030315;28;20022;-72
2021/08/17 01:37:15;;;;;;;9.90;4.45;;;;;;;21.90;47.33;102024.97;5030076;28;20021;-72
2021/08/17 01:39:43;;;;;;;10.48;3.38;;;;;;;21.95;47.20;102016.38;5030073;28;20025;-72
2021/08/17 01:42:08;;;;;;;8.73;3.17;;;;;;;21.99;46.98;102017.28;5028112;28;20033;-72
2021/08/17 01:44:34;;;;;;;8.38;3.22;;;;;;;21.68;47.84;102012.50;5030315;28;20028;-72
2021/08/17 01:47:00;;;;;;;8.80;3.40;;;;;;;21.93;47.13;102017.91;5030181;28;20356;-72
2021/08/17 01:49:28;;;;;;;14.48;5.78;;;;;;;22.27;46.35;102008.81;5029778;28;20082;-72
2021/08/17 01:51:53;;;;;;;7.50;3.72;;;;;;;22.19;46.42;102015.38;5029461;28;20037;-72
2021/08/17 01:54:19;;;;;;;10.18;3.85;;;;;;;21.66;47.72;102009.28;5029795;28;20038;-72
2021/08/17 01:56:45;;;;;;;9.23;3.10;;;;;;;21.80;47.61;102012.41;5029834;28;20064;-72
2021/08/17 01:59:13;;;;;;;8.00;3.05;;;;;;;21.52;48.40;102006.91;5029846;28;20025;-72
2021/08/17 02:01:49;;;;;;;14.55;3.88;;;;;;;21.91;47.25;101998.75;5029724;28;20044;-79
2021/08/17 02:04:15;;;;;;;10.50;3.45;;;;;;;21.57;48.07;101995.53;5028479;28;20029;-72
2021/08/17 02:06:41;;;;;;;11.02;3.70;;;;;;;21.64;48.01;101999.69;5029637;28;20029;-73
2021/08/17 02:09:06;;;;;;;12.55;4.18;;;;;;;21.62;48.22;101996.47;5029620;28;20028;-72
2021/08/17 02:11:35;;;;;;;8.75;3.15;;;;;;;21.56;47.89;101993.13;5029466;28;20037;-73
2021/08/17 02:14:03;;;;;;;6.90;2.25;;;;;;;21.81;47.38;101999.31;5028320;28;20054;-71
2021/08/17 02:16:29;;;;;;;13.95;3.42;;;;;;;21.99;46.87;102000.56;5029534;28;20145;-71
2021/08/17 02:18:54;;;;;;;10.13;3.17;;;;;;;22.08;46.70;101987.31;5029586;28;20029;-72
2021/08/17 02:21:20;;;;;;;11.07;3.67;;;;;;;22.26;46.25;101992.47;5028137;28;20033;-72
2021/08/17 02:23:45;;;;;;;10.25;4.22;;;;;;;22.00;46.98;102001.38;5029480;28;20379;-71
2021/08/17 02:26:11;;;;;;;9.68;2.95;;;;;;;22.11;46.78;101999.69;5029263;28;20487;-73
2021/08/17 02:28:44;;;;;;;14.43;4.05;;;;;;;21.84;47.47;101996.63;5028210;28;20498;-73
2021/08/17 02:31:18;;;;;;;10.85;3.35;;;;;;;21.95;47.02;101999.66;5029253;28;20030;-73
2021/08/17 02:33:44;;;;;;;9.55;3.10;;;;;;;21.97;47.34;101993.75;5029399;28;20043;-71
2021/08/17 02:36:10;;;;;;;12.35;3.95;;;;;;;21.90;47.09;101991.59;5029258;28;20030;-73
2021/08/17 02:38:35;;;;;;;7.90;3.25;;;;;;;21.74;48.06;101993.56;5029316;28;20036;-72
2021/08/17 02:41:01;;;;;;;13.45;3.05;;;;;;;21.96;47.06;101990.16;5029241;28;20120;-73
2021/08/17 02:43:29;;;;;;;8.20;3.03;;;;;;;21.75;47.84;101987.63;5029336;28;20022;-72
2021/08/17 02:45:56;;;;;;;11.32;2.97;;;;;;;21.55;48.45;101974.81;5029171;28;20037;-72
2021/08/17 02:48:22;;;;;;;7.30;3.13;;;;;;;21.56;48.44;101974.47;5029245;28;20066;-71
2021/08/17 02:50:47;;;;;;;9.75;3.20;;;;;;;21.42;48.82;101976.06;5029085;28;20025;-72
2021/08/17 02:53:15;;;;;;;8.65;3.03;;;;;;;21.60;48.36;101977.31;5029777;28;20026;-72
2021/08/17 02:55:41;;;;;;;8.80;3.10;;;;;;;21.38;48.95;101964.03;5032541;28;20021;-72
2021/08/17 02:58:08;;;;;;;12.32;2.95;;;;;;;21.41;48.89;101975.25;5032569;28;20654;-72
2021/08/17 03:00:36;;;;;;;9.70;3.08;;;;;;;21.17;49.29;101981.75;5032523;28;20109;-72
2021/08/17 03:03:02;;;;;;;9.55;3.30;;;;;;;21.67;48.15;101976.69;5031270;28;20033;-72
2021/08/17 03:05:30;;;;;;;10.30;3.67;;;;;;;21.66;47.93;101975.09;5030360;28;20113;-72
2021/08/17 03:08:11;;;;;;;7.63;2.42;;;;;;;21.53;48.47;101972.38;5013572;28;20061;-72
2021/08/17 03:10:41;;;;;;;9.27;3.65;;;;;;;21.60;48.16;101977.31;5011216;28;20557;-71
2021/08/17 03:13:10;;;;;;;8.77;3.40;;;;;;;21.83;47.36;101969.16;5012827;28;20049;-72
2021/08/17 03:15:37;;;;;;;10.23;3.28;;;;;;;21.69;47.63;101971.56;5012464;28;20034;-72
2021/08/17 03:18:15;;;;;;;6.93;3.33;;;;;;;21.69;47.61;101963.22;5011302;28;20069;-72
2021/08/17 03:20:44;;;;;;;8.27;2.47;;;;;;;21.72;47.85;101965.31;5012469;28;20480;-72
2021/08/17 03:23:21;;;;;;;11.52;4.40;;;;;;;21.65;47.68;101948.44;5012428;28;20040;-72
2021/08/17 03:25:47;;;;;;;10.20;3.22;;;;;;;21.71;47.75;101947.81;5012246;28;20113;-72
2021/08/17 03:28:12;;;;;;;8.43;2.95;;;;;;;21.85;47.41;101936.22;5012413;28;20465;-73
2021/08/17 03:30:38;;;;;;;7.95;3.03;;;;;;;21.64;47.99;101944.06;5012162;28;20030;-76
2021/08/17 03:33:39;;;;;;;12.80;3.20;;;;;;;21.71;47.60;101949.78;5012283;28;20103;-73
2021/08/17 03:36:12;;;;;;;6.05;2.60;;;;;;;21.66;48.07;101941.72;5012298;28;20026;-72
2021/08/17 03:38:40;;;;;;;12.93;3.45;;;;;;;21.37;48.90;101946.53;5010940;28;20022;-72
2021/08/17 03:41:09;;;;;;;7.18;2.65;;;;;;;21.16;49.58;101937.59;5010810;28;20033;-72
2021/08/17 03:43:37;;;;;;;10.05;3.53;;;;;;;20.88;50.57;101943.22;5012112;28;20086;-71
2021/08/17 03:46:05;;;;;;;8.52;3.08;;;;;;;20.94;50.68;101941.78;5012090;28;20026;-72
2021/08/17 03:48:40;;;;;;;9.98;3.17;;;;;;;20.62;51.37;101943.63;5011999;28;20105;-72
2021/08/17 03:51:11;;;;;;;7.20;2.65;;;;;;;21.07;49.86;101940.53;5011997;28;20040;-72
2021/08/17 03:53:37;;;;;;;7.82;2.80;;;;;;;21.22;49.36;101942.53;5012217;28;20178;-72
2021/08/17 03:56:18;;;;;;;12.23;3.17;;;;;;;20.96;50.10;101956.94;5011919;28;20597;-72
2021/08/17 03:58:44;;;;;;;8.48;2.15;;;;;;;21.08;49.84;101956.06;5011892;28;20033;-71
2021/08/17 04:01:12;;;;;;;8.52;2.63;;;;;;;21.06;49.64;101963.94;5011755;28;20022;-73
2021/08/17 04:03:48;;;;;;;;;;;;;;;;;;;;;
2021/08/17 04:06:16;;;;;;;6.68;2.40;;;;;;;20.87;50.59;101961.03;5011727;28;20022;-72
2021/08/17 04:08:52;;;;;;;6.97;2.25;;;;;;;20.84;50.66;101973.66;5011754;28;20029;-72
2021/08/17 04:11:18;;;;;;;10.18;2.80;;;;;;;20.88;50.71;101962.66;5010388;28;20038;-71
2021/08/17 04:13:44;;;;;;;8.52;2.85;;;;;;;21.15;49.90;101963.78;5011701;28;20087;-72
2021/08/17 04:16:38;;;;;;;8.07;2.90;;;;;;;20.74;51.35;101955.53;5011638;28;20571;-72
2021/08/17 04:19:03;;;;;;;6.95;2.95;;;;;;;20.96;50.68;101953.34;5011308;28;20489;-72
2021/08/17 04:21:47;;;;;;;9.50;2.42;;;;;;;20.83;51.14;101949.81;5010267;28;20033;-72
2021/08/17 04:24:21;;;;;;;10.48;2.70;;;;;;;21.01;50.77;101956.69;5011498;28;20098;-71
2021/08/17 04:26:56;;;;;;;8.55;2.53;;;;;;;20.94;51.02;101950.94;5011148;28;20045;-72
2021/08/17 04:29:40;;;;;;;;;;;;;;;;;;;;;
2021/08/17 04:32:08;;;;;;;8.90;1.85;;;;;;;21.27;49.97;101953.44;5011359;28;20040;-71
2021/08/17 04:34:34;;;;;;;6.90;2.35;;;;;;;21.39;49.49;101957.34;5010078;28;20022;-72
2021/08/17 04:37:00;;;;;;;6.72;2.53;;;;;;;21.50;49.14;101955.63;5011051;28;20034;-72
2021/08/17 04:39:35;;;;;;;;;;;;;;;;;;;;;
2021/08/17 04:42:02;;;;;;;9.70;2.33;;;;;;;21.30;50.06;101951.91;5011227;28;20484;-72
2021/08/17 04:44:27;;;;;;;8.38;2.55;;;;;;;21.40;49.66;101945.84;5011175;28;20113;-72
2021/08/17 04:47:13;;;;;;;7.50;2.80;;;;;;;21.21;50.22;101948.47;5011112;28;20036;-72
2021/08/17 04:49:59;;;;;;;6.78;2.35;;;;;;;20.99;51.02;101947.06;5011096;28;20026;-72
2021/08/17 04:52:26;;;;;;;7.25;2.00;;;;;;;21.20;50.56;101944.88;5010707;28;20049;-72
2021/08/17 04:54:52;;;;;;;3.95;1.50;;;;;;;21.12;50.75;101945.84;5011167;28;20026;-72
2021/08/17 04:57:17;;;;;;;7.07;2.47;;;;;;;21.07;50.83;101951.66;5010987;28;20055;-72
2021/08/17 05:00:03;;;;;;;;;;;;;;;;;;;;;
2021/08/17 05:03:18;;;;;;;5.65;2.10;;;;;;;21.19;50.62;101950.81;5010885;28;20014;-72
2021/08/17 05:05:35;;;;;;;9.02;2.13;;;;;;;21.15;50.95;101947.09;5008590;28;20038;-73
2021/08/17 05:08:27;;;;;;;9.65;2.65;;;;;;;20.88;51.63;101943.22;5010864;28;20030;-72
2021/08/17 05:11:14;;;;;;;3.88;1.92;;;;;;;21.23;50.70;101940.56;5009590;28;20066;-73
2021/08/17 05:13:59;;;;;;;5.55;1.98;;;;;;;21.23;50.71;101941.38;5010454;28;20061;-77
2021/08/17 05:16:30;;;;;;;6.65;2.88;;;;;;;21.13;51.01;101946.66;5005964;28;20121;-72
2021/08/17 05:19:12;;;;;;;6.15;2.28;;;;;;;21.20;50.84;101944.88;5010759;28;20100;-71
2021/08/17 05:21:48;;;;;;;4.65;1.88;;;;;;;20.99;51.64;101947.88;5025819;28;20129;-71
2021/08/17 05:24:46;;;;;;;;;;;;;;;;;;;;;
2021/08/17 05:27:15;;;;;;;8.48;1.85;;;;;;;21.08;51.54;101933.03;5008181;28;20037;-70
2021/08/17 05:29:53;;;;;;;;;;;;;;;;;;;;;
2021/08/17 05:32:45;;;;;;;5.45;2.20;;;;;;;20.76;52.72;101944.84;5010260;28;20034;-74
2021/08/17 05:35:11;;;;;;;5.20;1.75;;;;;;;21.27;51.03;101935.94;5009168;28;20083;-70
2021/08/17 05:37:47;;;;;;;4.03;2.10;;;;;;;21.27;51.25;101938.72;5010201;28;20030;-71
2021/08/17 05:43:16;;;;;;;6.10;2.17;;;;;;;21.23;51.35;101948.91;5009594;28;20130;-71
2021/08/17 05:45:41;;;;;;;3.78;1.80;;;;;;;20.80;52.82;101944.16;5010294;28;20022;-71
2021/08/17 05:48:07;;;;;;;7.72;1.85;;;;;;;21.09;52.05;101940.22;5009994;28;20038;-71
2021/08/17 05:50:33;;;;;;;5.22;1.70;;;;;;;21.25;51.33;101944.63;5010179;28;20387;-72
2021/08/17 05:56:04;;;;;;;4.35;1.13;;;;;;;20.75;53.19;101931.34;5009824;28;20045;-71
2021/08/17 05:59:03;;;;;;;2.90;1.25;;;;;;;21.22;51.75;101933.41;5010022;28;20033;-71
2021/08/17 06:01:50;;;;;;;2.78;1.52;;;;;;;21.20;51.65;101936.53;5007966;28;20495;-71
2021/08/17 06:04:20;;;;;;;2.80;1.65;;;;;;;21.29;51.29;101937.22;5009512;28;20045;-71
2021/08/17 06:07:18;;;;;;;4.35;1.88;;;;;;;21.05;52.29;101929.78;5008725;28;20472;-71
2021/08/17 06:09:44;;;;;;;3.65;1.65;;;;;;;21.16;51.91;101946.78;5005707;28;20045;-72
2021/08/17 06:12:13;;;;;;;3.33;1.10;;;;;;;21.38;51.56;101952.91;5009929;28;20065;-72
2021/08/17 06:14:41;;;;;;;5.80;1.83;;;;;;;21.49;51.18;101957.59;5008678;28;20080;-72
2021/08/17 06:19:59;;;;;;;3.97;1.70;;;;;;;21.54;51.17;101946.22;4993709;28;20058;-72
2021/08/17 06:22:27;;;;;;;5.18;1.83;;;;;;;21.78;50.38;101949.97;5009578;28;20061;-72
2021/08/17 06:27:59;;;;;;;3.50;1.10;;;;;;;21.85;50.30;101931.47;5007245;28;20470;-73
2021/08/17 06:30:24;;;;;;;6.63;3.58;;;;;;;21.85;50.51;101933.44;5013249;28;20050;-76
2021/08/17 06:32:50;;;;;;;4.28;1.48;;;;;;;22.09;49.74;101938.81;5011617;28;20362;-72
2021/08/17 06:35:16;;;;;;;8.48;2.28;;;;;;;22.14;49.77;101937.72;5035644;28;20048;-72
2021/08/17 06:38:01;;;;;;;2.05;0.90;;;;;;;21.72;51.12;101935.53;5031034;28;20064;-72
2021/08/17 06:40:27;;;;;;;3.88;1.40;;;;;;;21.62;51.32;101940.84;5032457;28;20120;-75
2021/08/17 06:42:54;;;;;;;4.70;1.60;;;;;;;21.85;50.90;101934.25;5031066;28;20435;-72
2021/08/17 06:45:20;;;;;;;3.42;1.50;;;;;;;21.97;50.47;101946.44;5032759;28;20026;-72
2021/08/17 06:47:50;;;;;;;1.52;0.98;;;;;;;22.12;50.14;101951.19;5032913;28;20048;-72
2021/08/17 06:53:13;;;;;;;2.90;1.25;;;;;;;21.79;51.21;101962.72;5020287;28;20038;-77
2021/08/17 06:55:38;;;;;;;6.72;1.38;;;;;;;21.76;51.41;101969.78;5032467;28;20108;-75
2021/08/17 06:58:06;;;;;;;2.95;1.10;;;;;;;22.04;50.64;101964.09;5032503;28;20135;-73
2021/08/17 07:00:32;;;;;;;4.07;1.33;;;;;;;21.89;51.04;101973.28;5032335;28;20021;-79
2021/08/17 07:02:57;;;;;;;3.13;1.48;;;;;;;21.88;51.17;101961.34;5032212;28;20032;-72
2021/08/17 07:05:23;;;;;;;5.95;1.10;;;;;;;22.25;50.44;101972.19;5030582;28;20033;-72
2021/08/17 07:11:03;;;;;;;19.50;2.70;;;;;;;22.29;50.26;101964.72;5012598;28;20121;-72
2021/08/17 07:13:29;;;;;;;4.97;1.60;;;;;;;21.74;52.33;101974.09;5032400;28;20102;-72
2021/08/17 07:16:14;;;;;;;4.53;1.20;;;;;;;22.18;51.01;101969.22;5030903;28;20032;-76
2021/08/17 07:18:40;;;;;;;4.25;1.65;;;;;;;22.63;49.95;101976.19;5010939;28;20514;-72
2021/08/17 07:21:12;;;;;;;5.18;1.77;;;;;;;22.52;50.20;101973.19;5030847;28;20026;-73
2021/08/17 07:23:37;;;;;;;6.30;1.98;;;;;;;22.55;50.40;101966.88;5030900;28;20560;-72
2021/08/17 07:26:12;;;;;;;5.57;1.90;;;;;;;22.31;50.73;101973.53;5030268;28;20049;-72
2021/08/17 07:28:58;;;;;;;4.22;1.40;;;;;;;22.28;50.98;101977.00;5030561;28;20479;-75
2021/08/17 07:31:50;;;;;;;6.07;2.05;;;;;;;22.50;50.49;101974.72;5024581;28;20395;-74
2021/08/17 07:34:15;;;;;;;7.25;2.00;;;;;;;22.68;49.77;101982.28;5015234;28;20033;-73
2021/08/17 07:36:41;;;;;;;3.65;1.80;;;;;;;22.81;49.56;101979.34;5030598;28;20021;-72
2021/08/17 07:39:09;;;;;;;4.13;1.45;;;;;;;22.76;49.66;101976.88;5030911;28;20048;-73
2021/08/17 07:41:57;;;;;;;9.20;2.10;;;;;;;22.73;49.92;101980.38;5031374;28;20140;-71
2021/08/17 07:44:23;;;;;;;3.03;1.75;;;;;;;22.98;49.14;101984.53;5031763;28;20066;-72
2021/08/17 07:46:48;;;;;;;3.25;1.40;;;;;;;22.97;49.36;101988.44;5030282;28;20022;-72
2021/08/17 07:49:17;;;;;;;6.93;1.52;;;;;;;22.60;50.60;101997.25;5031494;28;20040;-72
2021/08/17 07:51:42;;;;;;;11.25;2.28;;;;;;;22.90;49.58;101988.34;5031277;28;20034;-71
2021/08/17 07:54:08;;;;;;;4.97;1.73;;;;;;;22.83;49.99;101988.97;5031835;28;20522;-72
2021/08/17 07:56:34;;;;;;;5.00;1.70;;;;;;;23.16;49.31;101980.09;5030532;28;20040;-79
2021/08/17 07:59:00;;;;;;;4.30;1.58;;;;;;;23.00;49.88;101984.94;5030444;28;20124;-72
2021/08/17 08:01:45;;;;;;;4.10;1.25;;;;;;;23.56;48.48;101989.16;5031569;28;20040;-72
2021/08/17 08:04:11;;;;;;;5.85;1.45;;;;;;;23.17;49.61;101984.47;5060653;28;20048;-73
2021/08/17 08:06:44;;;;;;;2.63;1.75;;;;;;;23.50;48.69;101980.28;5029301;28;20025;-73
2021/08/17 08:09:37;;;;;;;3.25;1.50;;;;;;;23.28;49.18;101978.31;5030038;28;20482;-73
2021/08/17 08:12:03;;;;;;;5.82;1.90;;;;;;;23.28;49.66;101981.09;5028318;28;20044;-71
2021/08/17 08:14:29;;;;;;;3.10;1.02;;;;;;;23.43;49.34;101978.22;5017895;28;20476;-75
2021/08/17 08:16:58;;;;;;;3.40;1.27;;;;;;;23.33;49.13;101978.00;5016587;28;20037;-72
2021/08/17 08:19:23;;;;;;;4.70;1.20;;;;;;;23.20;49.63;101975.41;5017449;28;20025;-71
2021/08/17 08:21:52;;;;;;;5.13;1.35;;;;;;;23.47;49.27;101981.84;5017683;28;20078;-78
2021/08/17 08:24:17;;;;;;;2.97;1.08;;;;;;;23.32;49.99;101991.13;5016112;28;20116;-73
2021/08/17 08:26:43;;;;;;;3.75;1.20;;;;;;;23.11;50.42;101983.16;5023447;28;20064;-73
2021/08/17 08:29:08;;;;;;;1.60;1.00;;;;;;;23.76;48.78;101983.19;5015595;28;20083;-73
2021/08/17 08:31:34;;;;;;;4.72;0.93;;;;;;;23.88;48.51;101975.78;5022565;28;20069;-73
2021/08/17 08:34:00;;;;;;;7.20;1.88;;;;;;;24.27;47.82;101973.59;5018315;28;20044;-72
2021/08/17 08:36:25;;;;;;;3.30;1.20;;;;;;;24.25;48.08;101962.78;5014834;28;20121;-73
2021/08/17 08:38:51;;;;;;;2.15;1.30;;;;;;;24.27;47.96;101948.47;5012598;28;20043;-72
2021/08/17 08:41:20;;;;;;;2.35;0.70;;;;;;;24.06;48.26;101962.91;5007385;28;20541;-77
2021/08/17 08:43:47;;;;;;;2.58;0.88;;;;;;;24.14;48.44;101961.03;5012685;28;20406;-79
2021/08/17 08:46:17;;;;;;;1.00;0.60;;;;;;;24.23;48.26;101942.81;5012220;28;20389;-76
2021/08/17 08:48:50;;;;;;;2.05;1.00;;;;;;;24.20;48.06;101949.16;5012350;28;20042;-72
2021/08/17 08:51:18;;;;;;;3.40;0.90;;;;;;;24.51;47.43;101950.00;5009633;28;20037;-74
2021/08/17 08:53:45;;;;;;;2.42;0.90;;;;;;;24.73;46.77;101951.91;5007931;28;20046;-73
2021/08/17 08:56:11;;;;;;;2.13;0.80;;;;;;;23.89;48.79;101946.72;5010177;28;20045;-75
2021/08/17 08:58:40;;;;;;;4.28;0.90;;;;;;;24.16;48.46;101948.31;5008371;28;20061;-80
2021/08/17 09:01:09;;;;;;;2.33;0.90;;;;;;;24.54;47.73;101944.47;5009037;28;20038;-74
2021/08/17 09:03:50;;;;;;;3.30;1.00;;;;;;;24.77;47.13;101946.31;5010119;28;20041;-74
2021/08/17 09:06:27;;;;;;;3.53;0.65;;;;;;;24.99;46.94;101958.56;5009375;28;20100;-77
2021/08/17 09:09:08;;;;;;;1.75;0.82;;;;;;;25.03;45.73;101962.22;5011324;28;20045;-74
2021/08/17 09:11:35;;;;;;;1.65;1.00;;;;;;;24.50;46.87;101951.19;5008757;28;20124;-78
2021/08/17 09:14:19;;;;;;;2.53;1.00;;;;;;;24.77;46.68;101954.72;5010418;28;20461;-79
2021/08/17 09:16:47;;;;;;;2.97;0.95;;;;;;;25.19;45.39;101954.44;5010435;28;20379;-74
2021/08/17 09:19:34;;;;;;;1.83;0.90;;;;;;;25.08;45.91;101956.28;5010201;28;20050;-75
2021/08/17 09:22:15;;;;;;;1.63;0.80;;;;;;;25.19;45.64;101954.44;5008739;28;20033;-75
2021/08/17 09:24:44;;;;;;;3.75;1.13;;;;;;;25.24;46.09;101958.84;5007889;28;20178;-81
2021/08/17 09:27:16;;;;;;;1.65;0.88;;;;;;;25.10;46.20;101945.56;5009524;28;20665;-78
2021/08/17 09:29:49;;;;;;;2.05;0.90;;;;;;;25.46;45.76;101947.47;5007161;28;20499;-76
2021/08/17 09:32:20;;;;;;;1.98;1.10;;;;;;;25.25;46.39;101946.50;5007842;28;20033;-75
2021/08/17 09:34:53;;;;;;;1.38;0.82;;;;;;;25.11;46.45;101942.38;5008647;28;20475;-75
2021/08/17 09:37:20;;;;;;;1.52;0.80;;;;;;;25.39;45.78;101938.22;5007609;28;20719;-82
2021/08/17 09:39:49;;;;;;;1.33;0.98;;;;;;;25.33;46.29;101946.19;5006408;28;20091;-76
2021/08/17 09:42:27;;;;;;;1.73;1.00;;;;;;;25.22;46.27;101922.09;5008666;28;20026;-76
2021/08/17 09:45:18;;;;;;;2.78;1.10;;;;;;;25.68;45.57;101942.88;5008036;28;20110;-79
2021/08/17 09:47:55;;;;;;;1.15;0.73;;;;;;;25.71;45.17;101947.75;5009660;28;20034;-78
2021/08/17 09:50:27;;;;;;;4.03;1.48;;;;;;;25.88;44.75;101946.25;5006905;28;20563;-79
2021/08/17 09:53:20;;;;;;;4.57;1.48;;;;;;;25.66;45.45;101933.25;5009490;28;20068;-77
2021/08/17 09:55:49;;;;;;;1.23;0.80;;;;;;;25.54;45.89;101941.94;5006980;28;21325;-79
2021/08/17 09:58:22;;;;;;;3.92;1.17;;;;;;;26.19;44.44;101932.84;5021006;28;20476;-74
2021/08/17 10:00:49;;;;;;;3.13;1.27;;;;;;;26.27;44.45;101931.69;5025249;28;20048;-76
2021/08/17 10:03:18;;;;;;;3.30;0.98;;;;;;;25.81;44.92;101953.81;5023268;28;20025;-80
2021/08/17 10:05:44;;;;;;;2.58;1.40;;;;;;;25.80;45.19;101927.81;5025732;28;20057;-74
2021/08/17 10:08:12;;;;;;;4.63;1.38;;;;;;;26.36;44.10;101925.72;5013625;28;20044;-75
2021/08/17 10:10:40;;;;;;;4.38;1.33;;;;;;;26.20;44.22;101928.84;5005870;28;20553;-76
2021/08/17 10:13:11;;;;;;;1.60;1.20;;;;;;;26.40;43.98;101927.41;5008748;28;20032;-77
2021/08/17 10:15:38;;;;;;;2.22;1.13;;;;;;;25.83;45.25;101931.81;5006715;28;20113;-70
2021/08/17 10:18:07;;;;;;;2.90;1.20;;;;;;;26.64;43.85;101931.50;5008541;28;20104;-70
2021/08/17 10:20:36;;;;;;;1.20;1.00;;;;;;;27.09;42.92;101935.66;5009783;28;20048;-73
2021/08/17 10:23:06;;;;;;;3.47;1.30;;;;;;;26.64;43.59;101928.69;5007617;28;20502;-76
2021/08/17 10:25:56;;;;;;;6.30;1.95;;;;;;;27.04;42.24;101924.81;5005512;28;20507;-79
2021/08/17 10:28:32;;;;;;;2.17;1.45;;;;;;;27.09;42.45;101924.44;5006438;28;20081;-74
2021/08/17 10:31:18;;;;;;;1.52;1.08;;;;;;;27.31;42.11;101928.06;5024580;28;20037;-74
2021/08/17 10:34:11;;;;;;;2.25;1.25;;;;;;;27.49;41.90;101930.06;5024056;28;20053;-77
2021/08/17 10:36:45;;;;;;;2.10;1.10;;;;;;;27.78;41.54;101931.69;5023833;28;20034;-74
2021/08/17 10:39:17;;;;;;;1.75;0.90;;;;;;;27.77;40.98;101944.13;5023961;28;20029;-75
2021/08/17 10:41:46;;;;;;;3.75;1.10;;;;;;;28.04;40.97;101946.53;5025946;28;20040;-74
2021/08/17 10:44:18;;;;;;;2.13;1.10;;;;;;;27.62;41.67;101950.94;5025187;28;20022;-73
2021/08/17 10:46:50;;;;;;;1.67;1.25;;;;;;;27.81;41.21;101947.75;5023197;28;20556;-75
2021/08/17 10:49:43;;;;;;;3.80;1.60;;;;;;;28.01;40.53;101942.50;5023089;28;20017;-75
2021/08/17 10:52:11;;;;;;;1.30;1.20;;;;;;;28.18;40.09;101944.44;5023720;28;20041;-74
2021/08/17 10:54:40;;;;;;;2.80;1.20;;;;;;;27.77;40.97;101938.53;5021877;28;20032;-74
2021/08/17 10:57:20;;;;;;;1.38;1.02;;;;;;;27.79;40.80;101955.75;5024869;28;20048;-75
2021/08/17 10:59:49;;;;;;;4.55;1.30;;;;;;;28.09;40.31;101927.22;5024425;28;20030;-75
2021/08/17 11:02:22;;;;;;;2.05;1.15;;;;;;;27.87;40.74;101950.94;5020814;28;20040;-74
2021/08/17 11:04:49;;;;;;;1.35;1.25;;;;;;;28.27;40.22;101941.25;5022519;28;20038;-75
2021/08/17 11:07:26;;;;;;;1.80;1.30;;;;;;;28.34;40.03;101934.81;5028049;28;20476;-75
2021/08/17 11:09:54;;;;;;;2.08;1.50;;;;;;;28.58;39.33;101944.38;5027256;28;20498;-75
2021/08/17 11:12:20;;;;;;;2.10;1.52;;;;;;;28.60;39.42;101937.13;5026658;28;20495;-75
2021/08/17 11:14:49;;;;;;;1.73;1.20;;;;;;;28.38;39.93;101924.38;5029681;28;20025;-75
2021/08/17 11:17:18;;;;;;;2.10;1.08;;;;;;;28.69;39.21;101936.69;5031911;28;20018;-77
2021/08/17 11:19:50;;;;;;;2.25;1.10;;;;;;;28.82;39.10;101945.47;5032550;28;20033;-76
2021/08/17 11:22:20;;;;;;;2.25;1.17;;;;;;;28.69;39.17;101940.28;5032207;28;20144;-75
2021/08/17 11:24:48;;;;;;;;;;;;;;;28.91;38.58;101940.22;5032461;28;20517;-75
2021/08/17 11:27:19;;;;;;;3.63;1.30;;;;;;;28.96;38.21;101937.78;5031993;28;19982;-79
2021/08/17 11:29:53;;;;;;;1.85;1.10;;;;;;;28.87;38.31;101937.41;5031980;28;20419;-76
2021/08/17 11:32:29;;;;;;;2.63;1.38;;;;;;;28.93;38.60;101941.38;5029050;28;20030;-75
2021/08/17 11:34:57;;;;;;;3.40;1.30;;;;;;;28.78;39.14;101948.28;5032120;28;20030;-75
2021/08/17 11:37:24;;;;;;;1.17;0.93;;;;;;;27.92;40.33;101956.16;5031308;28;20491;-75
2021/08/17 11:39:54;;;;;;;2.55;1.13;;;;;;;28.47;39.37;101959.25;5030854;28;20033;-75
2021/08/17 11:42:26;;;;;;;1.58;0.90;;;;;;;28.31;39.83;101966.53;5030780;28;20032;-75
2021/08/17 11:44:58;;;;;;;1.95;1.10;;;;;;;28.29;39.97;101955.69;5031983;28;20032;-75
2021/08/17 11:47:24;;;;;;;1.85;0.90;;;;;;;28.70;39.22;101952.34;5030591;28;20026;-75
2021/08/17 11:49:56;;;;;;;3.05;1.00;;;;;;;28.36;39.88;101957.72;5031887;28;20030;-78
2021/08/17 11:52:27;;;;;;;1.20;0.93;;;;;;;28.65;39.11;101964.84;5031796;28;20032;-75
2021/08/17 11:55:01;;;;;;;1.73;1.02;;;;;;;28.26;40.18;101950.84;5031833;28;20026;-75
2021/08/17 11:57:33;;;;;;;15.15;3.35;;;;;;;28.38;39.93;101966.53;5031739;28;20479;-77
2021/08/17 12:00:16;;;;;;;4.88;1.27;;;;;;;27.95;41.15;101952.53;5031621;28;20021;-74
2021/08/17 12:02:50;;;;;;;1.27;1.02;;;;;;;28.03;41.16;101958.94;5028903;28;20022;-76
2021/08/17 12:05:20;;;;;;;2.95;1.10;;;;;;;27.98;41.24;101948.13;5031688;28;20026;-76
2021/08/17 12:07:48;;;;;;;1.70;1.30;;;;;;;28.28;40.24;101947.66;5030339;28;20480;-77